Avondale, Maryland
Current Conditions -  °F | °C
As of 1:30 PM on Thursday 27 Nov 2014 (Local Time) from KCGS Reporting Station
Overcast Overcast  
Wind Chill: 41°   Ceiling: 3400
Heat Index: 45°   Visibility: 10mi
Dew Point: 32°   Wind: 6mph
Humidity: 61%   Direction: 340°NNW
Pressure: 30.04"   Gusts: NA
Location:  38.9677°N, 76.9584°W
Report Text: KCGS 271830Z AUTO 34005KT 10SM BKN034 BKN047 OVC060 07/00 A3004 RMK AO1
Loading
Personal Weather Stations






























Interactive Weather Map New forecast layout! Learn more

10-Day Weather Forecast

Advertisements
Track Severe Weather on mobile